sensor_id;sensor_type;location;lat;lon;timestamp;temperature;humidity
19060;DHT22;9663;48.996;8.334;2023-01-13T00:01:13;14.30;61.30
19060;DHT22;9663;48.996;8.334;2023-01-13T00:03:41;14.20;60.90
19060;DHT22;9663;48.996;8.334;2023-01-13T00:06:11;14.40;61.40
19060;DHT22;9663;48.996;8.334;2023-01-13T00:08:39;14.30;61.30
19060;DHT22;9663;48.996;8.334;2023-01-13T00:11:05;15.10;61.90
19060;DHT22;9663;48.996;8.334;2023-01-13T00:13:30;14.80;62.00
19060;DHT22;9663;48.996;8.334;2023-01-13T00:16:03;14.10;61.40
19060;DHT22;9663;48.996;8.334;2023-01-13T00:18:32;14.00;61.00
19060;DHT22;9663;48.996;8.334;2023-01-13T00:21:04;13.80;61.20
19060;DHT22;9663;48.996;8.334;2023-01-13T00:23:33;14.20;61.50
19060;DHT22;9663;48.996;8.334;2023-01-13T00:26:04;14.60;61.90
19060;DHT22;9663;48.996;8.334;2023-01-13T00:28:32;14.10;61.20
19060;DHT22;9663;48.996;8.334;2023-01-13T00:31:06;15.40;62.30
19060;DHT22;9663;48.996;8.334;2023-01-13T00:33:33;14.20;61.50
19060;DHT22;9663;48.996;8.334;2023-01-13T00:36:01;15.00;62.20
19060;DHT22;9663;48.996;8.334;2023-01-13T00:38:29;14.10;61.50
19060;DHT22;9663;48.996;8.334;2023-01-13T00:41:04;14.20;61.70
19060;DHT22;9663;48.996;8.334;2023-01-13T00:43:32;14.00;61.50
19060;DHT22;9663;48.996;8.334;2023-01-13T00:45:59;15.70;62.30
19060;DHT22;9663;48.996;8.334;2023-01-13T00:48:26;14.10;61.40
19060;DHT22;9663;48.996;8.334;2023-01-13T00:51:01;13.90;61.30
19060;DHT22;9663;48.996;8.334;2023-01-13T00:53:32;14.10;61.50
19060;DHT22;9663;48.996;8.334;2023-01-13T00:56:09;14.20;61.50
19060;DHT22;9663;48.996;8.334;2023-01-13T00:58:39;13.90;61.30
19060;DHT22;9663;48.996;8.334;2023-01-13T01:01:08;13.90;61.70
19060;DHT22;9663;48.996;8.334;2023-01-13T01:03:36;13.80;61.80
19060;DHT22;9663;48.996;8.334;2023-01-13T01:06:08;13.70;61.80
19060;DHT22;9663;48.996;8.334;2023-01-13T01:08:39;13.90;62.10
19060;DHT22;9663;48.996;8.334;2023-01-13T01:11:11;13.60;62.00
19060;DHT22;9663;48.996;8.334;2023-01-13T01:13:39;14.80;62.90
19060;DHT22;9663;48.996;8.334;2023-01-13T01:16:07;14.70;62.90
19060;DHT22;9663;48.996;8.334;2023-01-13T01:18:36;13.90;62.40
19060;DHT22;9663;48.996;8.334;2023-01-13T01:21:04;13.50;62.30
19060;DHT22;9663;48.996;8.334;2023-01-13T01:23:31;13.70;62.50
19060;DHT22;9663;48.996;8.334;2023-01-13T01:26:21;13.70;62.70
19060;DHT22;9663;48.996;8.334;2023-01-13T01:28:49;13.70;62.40
19060;DHT22;9663;48.996;8.334;2023-01-13T01:31:18;13.40;62.60
19060;DHT22;9663;48.996;8.334;2023-01-13T01:33:46;14.00;63.20
19060;DHT22;9663;48.996;8.334;2023-01-13T01:36:14;14.30;63.40
19060;DHT22;9663;48.996;8.334;2023-01-13T01:38:41;14.70;63.70
19060;DHT22;9663;48.996;8.334;2023-01-13T01:41:13;13.40;63.00
19060;DHT22;9663;48.996;8.334;2023-01-13T01:44:05;14.00;63.50
19060;DHT22;9663;48.996;8.334;2023-01-13T01:46:52;13.40;63.10
19060;DHT22;9663;48.996;8.334;2023-01-13T01:49:29;13.30;63.30
19060;DHT22;9663;48.996;8.334;2023-01-13T01:52:03;13.50;63.10
19060;DHT22;9663;48.996;8.334;2023-01-13T01:54:39;13.60;63.70
19060;DHT22;9663;48.996;8.334;2023-01-13T01:57:28;13.30;63.20
19060;DHT22;9663;48.996;8.334;2023-01-13T01:59:57;13.50;63.70
19060;DHT22;9663;48.996;8.334;2023-01-13T02:02:26;13.40;63.50
19060;DHT22;9663;48.996;8.334;2023-01-13T02:04:53;13.60;63.90
19060;DHT22;9663;48.996;8.334;2023-01-13T02:07:24;13.60;64.00
19060;DHT22;9663;48.996;8.334;2023-01-13T02:09:54;13.40;63.90
19060;DHT22;9663;48.996;8.334;2023-01-13T02:12:22;13.40;64.00
19060;DHT22;9663;48.996;8.334;2023-01-13T02:15:09;13.30;63.90
19060;DHT22;9663;48.996;8.334;2023-01-13T02:20:43;12.90;62.90
19060;DHT22;9663;48.996;8.334;2023-01-13T02:36:58;13.20;63.80
19060;DHT22;9663;48.996;8.334;2023-01-13T02:39:55;15.00;65.60
19060;DHT22;9663;48.996;8.334;2023-01-13T02:42:27;13.00;63.70
19060;DHT22;9663;48.996;8.334;2023-01-13T02:45:20;13.20;64.30
19060;DHT22;9663;48.996;8.334;2023-01-13T02:47:54;13.00;64.20
19060;DHT22;9663;48.996;8.334;2023-01-13T02:50:27;13.80;64.70
19060;DHT22;9663;48.996;8.334;2023-01-13T02:53:01;13.30;64.50
19060;DHT22;9663;48.996;8.334;2023-01-13T02:55:36;13.20;64.20
19060;DHT22;9663;48.996;8.334;2023-01-13T02:58:07;14.80;65.30
19060;DHT22;9663;48.996;8.334;2023-01-13T03:00:36;14.20;64.80
19060;DHT22;9663;48.996;8.334;2023-01-13T03:03:02;13.00;64.10
19060;DHT22;9663;48.996;8.334;2023-01-13T03:05:29;13.60;64.30
19060;DHT22;9663;48.996;8.334;2023-01-13T03:11:15;13.40;63.40
19060;DHT22;9663;48.996;8.334;2023-01-13T03:14:06;13.80;64.30
19060;DHT22;9663;48.996;8.334;2023-01-13T03:19:53;13.70;63.30
19060;DHT22;9663;48.996;8.334;2023-01-13T03:25:03;14.10;63.40
19060;DHT22;9663;48.996;8.334;2023-01-13T03:27:55;13.60;63.80
19060;DHT22;9663;48.996;8.334;2023-01-13T03:30:28;13.70;63.00
19060;DHT22;9663;48.996;8.334;2023-01-13T03:33:23;13.70;63.60
19060;DHT22;9663;48.996;8.334;2023-01-13T03:36:02;13.80;62.90
19060;DHT22;9663;48.996;8.334;2023-01-13T03:38:44;13.50;63.40
19060;DHT22;9663;48.996;8.334;2023-01-13T03:41:25;14.00;62.90
19060;DHT22;9663;48.996;8.334;2023-01-13T03:44:14;14.20;63.00
19060;DHT22;9663;48.996;8.334;2023-01-13T03:47:15;13.80;63.20
19060;DHT22;9663;48.996;8.334;2023-01-13T03:49:52;13.80;62.50
19060;DHT22;9663;48.996;8.334;2023-01-13T03:52:48;13.90;63.30
19060;DHT22;9663;48.996;8.334;2023-01-13T03:55:21;14.10;62.50
19060;DHT22;9663;48.996;8.334;2023-01-13T03:58:03;14.10;63.50
19060;DHT22;9663;48.996;8.334;2023-01-13T04:03:32;13.80;62.40
19060;DHT22;9663;48.996;8.334;2023-01-13T04:06:30;14.00;62.50
19060;DHT22;9663;48.996;8.334;2023-01-13T04:12:12;13.60;62.30
19060;DHT22;9663;48.996;8.334;2023-01-13T04:14:43;14.10;62.40
19060;DHT22;9663;48.996;8.334;2023-01-13T04:17:09;15.10;63.70
19060;DHT22;9663;48.996;8.334;2023-01-13T04:19:35;13.80;62.80
19060;DHT22;9663;48.996;8.334;2023-01-13T04:22:01;14.00;63.10
19060;DHT22;9663;48.996;8.334;2023-01-13T04:24:27;14.30;63.10
19060;DHT22;9663;48.996;8.334;2023-01-13T04:26:52;13.60;62.80
19060;DHT22;9663;48.996;8.334;2023-01-13T04:29:21;14.00;63.00
19060;DHT22;9663;48.996;8.334;2023-01-13T04:31:46;14.40;63.20
19060;DHT22;9663;48.996;8.334;2023-01-13T04:34:12;14.60;63.40
19060;DHT22;9663;48.996;8.334;2023-01-13T04:36:38;14.20;63.10
19060;DHT22;9663;48.996;8.334;2023-01-13T04:39:04;13.80;63.00
19060;DHT22;9663;48.996;8.334;2023-01-13T04:41:29;13.90;63.00
19060;DHT22;9663;48.996;8.334;2023-01-13T04:44:13;14.30;62.70
19060;DHT22;9663;48.996;8.334;2023-01-13T04:46:39;13.90;62.80
19060;DHT22;9663;48.996;8.334;2023-01-13T04:49:05;13.70;62.90
19060;DHT22;9663;48.996;8.334;2023-01-13T04:51:30;14.40;63.20
19060;DHT22;9663;48.996;8.334;2023-01-13T04:53:56;13.90;63.60
19060;DHT22;9663;48.996;8.334;2023-01-13T04:56:21;14.10;63.00
19060;DHT22;9663;48.996;8.334;2023-01-13T04:58:47;13.70;62.80
19060;DHT22;9663;48.996;8.334;2023-01-13T05:01:13;15.50;63.90
19060;DHT22;9663;48.996;8.334;2023-01-13T05:03:38;14.00;63.00
19060;DHT22;9663;48.996;8.334;2023-01-13T05:06:04;14.10;62.90
19060;DHT22;9663;48.996;8.334;2023-01-13T05:08:30;13.90;62.90
19060;DHT22;9663;48.996;8.334;2023-01-13T05:10:59;14.10;63.10
19060;DHT22;9663;48.996;8.334;2023-01-13T05:13:25;14.10;63.30
19060;DHT22;9663;48.996;8.334;2023-01-13T05:16:29;13.90;62.60
19060;DHT22;9663;48.996;8.334;2023-01-13T05:19:13;14.00;62.70
19060;DHT22;9663;48.996;8.334;2023-01-13T05:21:39;14.20;63.10
19060;DHT22;9663;48.996;8.334;2023-01-13T05:24:23;13.70;62.50
19060;DHT22;9663;48.996;8.334;2023-01-13T05:27:07;13.80;62.40
19060;DHT22;9663;48.996;8.334;2023-01-13T05:29:33;13.70;63.10
19060;DHT22;9663;48.996;8.334;2023-01-13T05:31:58;13.90;63.10
19060;DHT22;9663;48.996;8.334;2023-01-13T05:34:26;13.60;63.00
19060;DHT22;9663;48.996;8.334;2023-01-13T05:36:52;14.00;63.30
19060;DHT22;9663;48.996;8.334;2023-01-13T05:39:18;14.20;63.40
19060;DHT22;9663;48.996;8.334;2023-01-13T05:41:43;13.80;63.00
19060;DHT22;9663;48.996;8.334;2023-01-13T05:44:27;15.30;63.50
19060;DHT22;9663;48.996;8.334;2023-01-13T05:46:53;13.60;63.00
19060;DHT22;9663;48.996;8.334;2023-01-13T05:49:19;14.90;63.90
19060;DHT22;9663;48.996;8.334;2023-01-13T05:51:44;15.10;63.90
19060;DHT22;9663;48.996;8.334;2023-01-13T05:54:10;13.90;63.30
19060;DHT22;9663;48.996;8.334;2023-01-13T05:56:35;13.40;63.00
19060;DHT22;9663;48.996;8.334;2023-01-13T05:59:01;14.90;63.90
19060;DHT22;9663;48.996;8.334;2023-01-13T06:01:27;13.50;63.10
19060;DHT22;9663;48.996;8.334;2023-01-13T06:03:52;15.10;64.20
19060;DHT22;9663;48.996;8.334;2023-01-13T06:06:18;13.90;63.40
19060;DHT22;9663;48.996;8.334;2023-01-13T06:08:43;14.70;63.80
19060;DHT22;9663;48.996;8.334;2023-01-13T06:11:09;14.00;63.30
19060;DHT22;9663;48.996;8.334;2023-01-13T06:13:35;13.70;63.20
19060;DHT22;9663;48.996;8.334;2023-01-13T06:16:00;13.50;63.00
19060;DHT22;9663;48.996;8.334;2023-01-13T06:18:27;13.70;63.10
19060;DHT22;9663;48.996;8.334;2023-01-13T06:20:53;13.90;63.30
19060;DHT22;9663;48.996;8.334;2023-01-13T06:23:18;14.00;63.30
19060;DHT22;9663;48.996;8.334;2023-01-13T06:26:14;13.90;63.30
19060;DHT22;9663;48.996;8.334;2023-01-13T06:28:43;13.60;62.50
19060;DHT22;9663;48.996;8.334;2023-01-13T06:31:09;15.00;64.10
19060;DHT22;9663;48.996;8.334;2023-01-13T06:33:41;15.00;64.20
19060;DHT22;9663;48.996;8.334;2023-01-13T06:36:17;13.50;62.50
19060;DHT22;9663;48.996;8.334;2023-01-13T06:38:48;13.70;63.50
19060;DHT22;9663;48.996;8.334;2023-01-13T06:41:18;14.00;63.70
19060;DHT22;9663;48.996;8.334;2023-01-13T06:44:07;13.80;63.60
19060;DHT22;9663;48.996;8.334;2023-01-13T06:46:34;13.20;63.40
19060;DHT22;9663;48.996;8.334;2023-01-13T06:49:00;13.70;64.00
19060;DHT22;9663;48.996;8.334;2023-01-13T06:51:25;13.70;63.80
19060;DHT22;9663;48.996;8.334;2023-01-13T06:53:51;13.40;63.50
19060;DHT22;9663;48.996;8.334;2023-01-13T06:56:16;13.60;63.60
19060;DHT22;9663;48.996;8.334;2023-01-13T06:58:42;13.50;63.70
19060;DHT22;9663;48.996;8.334;2023-01-13T07:01:08;13.60;63.70
19060;DHT22;9663;48.996;8.334;2023-01-13T07:03:33;13.40;63.70
19060;DHT22;9663;48.996;8.334;2023-01-13T07:05:59;15.20;64.90
19060;DHT22;9663;48.996;8.334;2023-01-13T07:08:26;14.20;64.10
19060;DHT22;9663;48.996;8.334;2023-01-13T07:10:52;14.70;64.60
19060;DHT22;9663;48.996;8.334;2023-01-13T07:13:18;14.60;64.60
19060;DHT22;9663;48.996;8.334;2023-01-13T07:16:05;13.70;64.00
19060;DHT22;9663;48.996;8.334;2023-01-13T07:18:34;13.40;63.80
19060;DHT22;9663;48.996;8.334;2023-01-13T07:21:05;13.40;63.80
19060;DHT22;9663;48.996;8.334;2023-01-13T07:23:37;13.50;63.80
19060;DHT22;9663;48.996;8.334;2023-01-13T07:26:05;13.80;64.20
19060;DHT22;9663;48.996;8.334;2023-01-13T07:28:32;13.20;63.90
19060;DHT22;9663;48.996;8.334;2023-01-13T07:30:58;13.20;63.90
19060;DHT22;9663;48.996;8.334;2023-01-13T07:33:24;13.50;64.00
19060;DHT22;9663;48.996;8.334;2023-01-13T07:35:58;13.40;64.30
19060;DHT22;9663;48.996;8.334;2023-01-13T07:38:26;13.30;64.80
19060;DHT22;9663;48.996;8.334;2023-01-13T07:40:52;12.90;64.80
19060;DHT22;9663;48.996;8.334;2023-01-13T07:43:19;13.60;65.50
19060;DHT22;9663;48.996;8.334;2023-01-13T07:45:57;13.00;64.50
19060;DHT22;9663;48.996;8.334;2023-01-13T07:48:26;12.80;65.30
19060;DHT22;9663;48.996;8.334;2023-01-13T07:50:52;12.60;65.50
19060;DHT22;9663;48.996;8.334;2023-01-13T07:53:19;12.40;66.10
19060;DHT22;9663;48.996;8.334;2023-01-13T07:55:45;12.10;66.90
19060;DHT22;9663;48.996;8.334;2023-01-13T07:58:10;12.40;67.50
19060;DHT22;9663;48.996;8.334;2023-01-13T08:00:37;12.00;67.70
19060;DHT22;9663;48.996;8.334;2023-01-13T08:03:03;12.10;68.60
19060;DHT22;9663;48.996;8.334;2023-01-13T08:05:28;11.80;68.70
19060;DHT22;9663;48.996;8.334;2023-01-13T08:07:54;11.70;69.20
19060;DHT22;9663;48.996;8.334;2023-01-13T08:10:20;11.10;69.00
19060;DHT22;9663;48.996;8.334;2023-01-13T08:12:45;11.50;69.30
19060;DHT22;9663;48.996;8.334;2023-01-13T08:15:31;11.60;69.00
19060;DHT22;9663;48.996;8.334;2023-01-13T08:17:57;11.50;70.00
19060;DHT22;9663;48.996;8.334;2023-01-13T08:20:24;11.80;70.20
19060;DHT22;9663;48.996;8.334;2023-01-13T08:22:49;11.50;70.30
19060;DHT22;9663;48.996;8.334;2023-01-13T08:25:15;11.60;70.50
19060;DHT22;9663;48.996;8.334;2023-01-13T08:27:41;11.60;70.60
19060;DHT22;9663;48.996;8.334;2023-01-13T08:30:08;11.40;70.30
19060;DHT22;9663;48.996;8.334;2023-01-13T08:32:34;11.30;69.60
19060;DHT22;9663;48.996;8.334;2023-01-13T08:35:00;11.60;70.10
19060;DHT22;9663;48.996;8.334;2023-01-13T08:37:26;11.50;70.20
19060;DHT22;9663;48.996;8.334;2023-01-13T08:39:51;11.40;70.30
19060;DHT22;9663;48.996;8.334;2023-01-13T08:42:17;11.40;70.20
19060;DHT22;9663;48.996;8.334;2023-01-13T08:44:43;11.50;70.00
19060;DHT22;9663;48.996;8.334;2023-01-13T08:47:09;13.00;70.80
19060;DHT22;9663;48.996;8.334;2023-01-13T08:49:34;12.80;70.70
19060;DHT22;9663;48.996;8.334;2023-01-13T08:52:00;11.30;69.70
19060;DHT22;9663;48.996;8.334;2023-01-13T08:54:26;11.70;70.00
19060;DHT22;9663;48.996;8.334;2023-01-13T08:56:52;11.60;69.70
19060;DHT22;9663;48.996;8.334;2023-01-13T08:59:19;11.50;70.00
19060;DHT22;9663;48.996;8.334;2023-01-13T09:01:44;11.40;70.10
19060;DHT22;9663;48.996;8.334;2023-01-13T09:04:17;11.90;70.30
19060;DHT22;9663;48.996;8.334;2023-01-13T09:06:45;11.70;70.20
19060;DHT22;9663;48.996;8.334;2023-01-13T09:09:12;13.20;70.90
19060;DHT22;9663;48.996;8.334;2023-01-13T09:11:42;11.90;69.90
19060;DHT22;9663;48.996;8.334;2023-01-13T09:14:31;11.70;70.00
19060;DHT22;9663;48.996;8.334;2023-01-13T09:16:58;12.10;70.30
19060;DHT22;9663;48.996;8.334;2023-01-13T09:19:25;12.00;70.30
19060;DHT22;9663;48.996;8.334;2023-01-13T09:21:51;11.80;70.20
19060;DHT22;9663;48.996;8.334;2023-01-13T09:24:19;12.10;70.20
19060;DHT22;9663;48.996;8.334;2023-01-13T09:26:45;11.30;69.90
19060;DHT22;9663;48.996;8.334;2023-01-13T09:29:11;12.20;70.30
19060;DHT22;9663;48.996;8.334;2023-01-13T09:31:37;12.80;70.70
19060;DHT22;9663;48.996;8.334;2023-01-13T09:34:05;12.40;70.40
19060;DHT22;9663;48.996;8.334;2023-01-13T09:36:50;12.30;70.50
19060;DHT22;9663;48.996;8.334;2023-01-13T09:39:16;12.10;70.20
19060;DHT22;9663;48.996;8.334;2023-01-13T09:41:45;14.10;71.30
19060;DHT22;9663;48.996;8.334;2023-01-13T09:47:48;12.10;69.20
19060;DHT22;9663;48.996;8.334;2023-01-13T09:50:32;12.70;69.10
19060;DHT22;9663;48.996;8.334;2023-01-13T09:53:20;12.30;70.10
19060;DHT22;9663;48.996;8.334;2023-01-13T09:55:49;13.10;69.20
19060;DHT22;9663;48.996;8.334;2023-01-13T09:58:16;12.70;70.00
19060;DHT22;9663;48.996;8.334;2023-01-13T10:01:10;12.50;69.80
19060;DHT22;9663;48.996;8.334;2023-01-13T10:03:42;12.90;68.90
19060;DHT22;9663;48.996;8.334;2023-01-13T10:08:38;13.90;69.90
19060;DHT22;9663;48.996;8.334;2023-01-13T10:11:14;14.20;70.10
19060;DHT22;9663;48.996;8.334;2023-01-13T10:14:07;13.10;69.30
19060;DHT22;9663;48.996;8.334;2023-01-13T10:19:27;12.70;68.90
19060;DHT22;9663;48.996;8.334;2023-01-13T10:27:28;12.90;67.90
19060;DHT22;9663;48.996;8.334;2023-01-13T10:30:54;12.80;67.90
19060;DHT22;9663;48.996;8.334;2023-01-13T10:33:04;13.00;69.60
19060;DHT22;9663;48.996;8.334;2023-01-13T10:40:52;12.50;68.90
19060;DHT22;9663;48.996;8.334;2023-01-13T10:43:27;14.30;70.00
19060;DHT22;9663;48.996;8.334;2023-01-13T10:46:08;13.90;69.70
19060;DHT22;9663;48.996;8.334;2023-01-13T10:48:50;12.80;68.20
19060;DHT22;9663;48.996;8.334;2023-01-13T10:56:26;13.10;68.00
19060;DHT22;9663;48.996;8.334;2023-01-13T10:59:21;12.80;69.10
19060;DHT22;9663;48.996;8.334;2023-01-13T11:04:32;13.10;68.20
19060;DHT22;9663;48.996;8.334;2023-01-13T11:07:02;12.90;67.40
19060;DHT22;9663;48.996;8.334;2023-01-13T11:09:31;13.20;68.10
19060;DHT22;9663;48.996;8.334;2023-01-13T11:11:58;13.40;68.00
19060;DHT22;9663;48.996;8.334;2023-01-13T11:14:40;13.30;68.00
19060;DHT22;9663;48.996;8.334;2023-01-13T11:17:38;13.30;67.60
19060;DHT22;9663;48.996;8.334;2023-01-13T11:22:57;13.20;66.60
19060;DHT22;9663;48.996;8.334;2023-01-13T11:25:33;13.60;67.00
19060;DHT22;9663;48.996;8.334;2023-01-13T11:28:28;13.40;66.80
19060;DHT22;9663;48.996;8.334;2023-01-13T11:31:21;13.60;66.40
19060;DHT22;9663;48.996;8.334;2023-01-13T11:36:51;14.80;67.50
19060;DHT22;9663;48.996;8.334;2023-01-13T11:45:40;13.40;66.00
19060;DHT22;9663;48.996;8.334;2023-01-13T11:48:14;13.40;65.70
19060;DHT22;9663;48.996;8.334;2023-01-13T11:53:41;13.20;65.10
19060;DHT22;9663;48.996;8.334;2023-01-13T12:05:22;12.10;66.60
19060;DHT22;9663;48.996;8.334;2023-01-13T12:16:30;11.90;68.20
19060;DHT22;9663;48.996;8.334;2023-01-13T12:19:25;12.90;69.80
19060;DHT22;9663;48.996;8.334;2023-01-13T12:22:11;13.40;67.70
19060;DHT22;9663;48.996;8.334;2023-01-13T12:25:19;14.20;67.40
19060;DHT22;9663;48.996;8.334;2023-01-13T12:28:10;14.50;65.10
19060;DHT22;9663;48.996;8.334;2023-01-13T12:30:50;15.40;64.60
19060;DHT22;9663;48.996;8.334;2023-01-13T12:42:54;15.70;59.40
19060;DHT22;9663;48.996;8.334;2023-01-13T12:45:45;15.40;59.80
19060;DHT22;9663;48.996;8.334;2023-01-13T12:59:45;13.70;63.20
19060;DHT22;9663;48.996;8.334;2023-01-13T13:02:44;14.60;63.90
19060;DHT22;9663;48.996;8.334;2023-01-13T13:08:55;12.60;63.70
19060;DHT22;9663;48.996;8.334;2023-01-13T13:11:43;13.00;63.40
19060;DHT22;9663;48.996;8.334;2023-01-13T13:19:57;12.30;65.60
19060;DHT22;9663;48.996;8.334;2023-01-13T13:27:37;11.90;65.10
19060;DHT22;9663;48.996;8.334;2023-01-13T13:33:32;12.10;66.90
19060;DHT22;9663;48.996;8.334;2023-01-13T13:42:27;12.10;66.00
19060;DHT22;9663;48.996;8.334;2023-01-13T13:45:20;12.40;65.60
19060;DHT22;9663;48.996;8.334;2023-01-13T13:53:55;12.40;65.90
19060;DHT22;9663;48.996;8.334;2023-01-13T13:56:25;12.50;66.00
19060;DHT22;9663;48.996;8.334;2023-01-13T13:58:52;12.70;65.80
19060;DHT22;9663;48.996;8.334;2023-01-13T14:01:29;14.30;66.50
19060;DHT22;9663;48.996;8.334;2023-01-13T14:04:21;12.30;64.30
19060;DHT22;9663;48.996;8.334;2023-01-13T14:06:58;12.30;65.00
19060;DHT22;9663;48.996;8.334;2023-01-13T14:09:38;12.50;65.40
19060;DHT22;9663;48.996;8.334;2023-01-13T14:12:18;12.30;64.60
19060;DHT22;9663;48.996;8.334;2023-01-13T14:14:47;12.30;64.70
19060;DHT22;9663;48.996;8.334;2023-01-13T14:17:25;12.50;66.10
19060;DHT22;9663;48.996;8.334;2023-01-13T14:20:11;12.20;65.80
19060;DHT22;9663;48.996;8.334;2023-01-13T14:22:48;12.40;65.10
19060;DHT22;9663;48.996;8.334;2023-01-13T14:25:34;12.20;65.10
19060;DHT22;9663;48.996;8.334;2023-01-13T14:28:27;12.30;64.90
19060;DHT22;9663;48.996;8.334;2023-01-13T14:30:57;12.70;65.90
19060;DHT22;9663;48.996;8.334;2023-01-13T14:33:38;12.70;66.00
19060;DHT22;9663;48.996;8.334;2023-01-13T14:39:22;12.60;65.80
19060;DHT22;9663;48.996;8.334;2023-01-13T14:41:36;12.80;65.60
19060;DHT22;9663;48.996;8.334;2023-01-13T14:44:25;14.40;66.30
19060;DHT22;9663;48.996;8.334;2023-01-13T14:46:56;12.20;65.30
19060;DHT22;9663;48.996;8.334;2023-01-13T14:49:36;12.40;65.20
19060;DHT22;9663;48.996;8.334;2023-01-13T14:52:14;12.50;64.50
19060;DHT22;9663;48.996;8.334;2023-01-13T14:54:46;12.30;64.50
19060;DHT22;9663;48.996;8.334;2023-01-13T14:57:39;12.10;65.30
19060;DHT22;9663;48.996;8.334;2023-01-13T15:07:54;12.00;65.00
19060;DHT22;9663;48.996;8.334;2023-01-13T15:10:34;12.10;65.20
19060;DHT22;9663;48.996;8.334;2023-01-13T15:13:04;12.00;64.60
19060;DHT22;9663;48.996;8.334;2023-01-13T15:15:33;12.30;65.60
19060;DHT22;9663;48.996;8.334;2023-01-13T15:18:04;11.80;65.50
19060;DHT22;9663;48.996;8.334;2023-01-13T15:20:35;12.00;65.70
19060;DHT22;9663;48.996;8.334;2023-01-13T15:23:00;12.70;66.00
19060;DHT22;9663;48.996;8.334;2023-01-13T15:25:35;12.00;65.60
19060;DHT22;9663;48.996;8.334;2023-01-13T15:28:04;12.30;65.30
19060;DHT22;9663;48.996;8.334;2023-01-13T15:30:31;11.90;65.00
19060;DHT22;9663;48.996;8.334;2023-01-13T15:32:57;12.40;65.20
19060;DHT22;9663;48.996;8.334;2023-01-13T15:35:26;12.20;65.00
19060;DHT22;9663;48.996;8.334;2023-01-13T15:37:55;11.70;64.80
19060;DHT22;9663;48.996;8.334;2023-01-13T15:40:30;11.80;64.50
19060;DHT22;9663;48.996;8.334;2023-01-13T15:42:56;11.60;63.90
19060;DHT22;9663;48.996;8.334;2023-01-13T15:45:42;13.40;65.70
19060;DHT22;9663;48.996;8.334;2023-01-13T15:48:27;11.80;64.80
19060;DHT22;9663;48.996;8.334;2023-01-13T15:50:56;11.50;65.00
19060;DHT22;9663;48.996;8.334;2023-01-13T15:53:22;11.30;64.90
19060;DHT22;9663;48.996;8.334;2023-01-13T15:55:50;11.30;65.10
19060;DHT22;9663;48.996;8.334;2023-01-13T15:58:20;11.40;65.50
19060;DHT22;9663;48.996;8.334;2023-01-13T16:00:49;11.40;65.40
19060;DHT22;9663;48.996;8.334;2023-01-13T16:03:15;11.10;65.50
19060;DHT22;9663;48.996;8.334;2023-01-13T16:05:42;10.80;65.30
19060;DHT22;9663;48.996;8.334;2023-01-13T16:08:16;11.00;65.90
19060;DHT22;9663;48.996;8.334;2023-01-13T16:10:44;11.30;66.00
19060;DHT22;9663;48.996;8.334;2023-01-13T16:13:11;11.00;65.90
19060;DHT22;9663;48.996;8.334;2023-01-13T16:15:43;10.90;66.10
19060;DHT22;9663;48.996;8.334;2023-01-13T16:18:21;10.90;65.40
19060;DHT22;9663;48.996;8.334;2023-01-13T16:20:50;11.10;66.50
19060;DHT22;9663;48.996;8.334;2023-01-13T16:23:18;11.00;66.40
19060;DHT22;9663;48.996;8.334;2023-01-13T16:25:46;11.50;66.70
19060;DHT22;9663;48.996;8.334;2023-01-13T16:28:21;10.80;66.50
19060;DHT22;9663;48.996;8.334;2023-01-13T16:30:49;10.80;66.50
19060;DHT22;9663;48.996;8.334;2023-01-13T16:33:15;11.90;67.10
19060;DHT22;9663;48.996;8.334;2023-01-13T16:35:42;10.60;66.50
19060;DHT22;9663;48.996;8.334;2023-01-13T16:38:17;10.80;66.80
19060;DHT22;9663;48.996;8.334;2023-01-13T16:40:44;10.60;66.50
19060;DHT22;9663;48.996;8.334;2023-01-13T16:43:13;10.70;66.80
19060;DHT22;9663;48.996;8.334;2023-01-13T16:45:39;10.70;67.10
19060;DHT22;9663;48.996;8.334;2023-01-13T16:48:08;11.10;67.10
19060;DHT22;9663;48.996;8.334;2023-01-13T16:50:43;10.80;66.70
19060;DHT22;9663;48.996;8.334;2023-01-13T16:53:10;10.90;66.50
19060;DHT22;9663;48.996;8.334;2023-01-13T16:55:40;11.10;66.60
19060;DHT22;9663;48.996;8.334;2023-01-13T16:58:15;11.10;66.50
19060;DHT22;9663;48.996;8.334;2023-01-13T17:00:43;11.20;66.60
19060;DHT22;9663;48.996;8.334;2023-01-13T17:03:13;12.50;67.10
19060;DHT22;9663;48.996;8.334;2023-01-13T17:05:41;11.60;66.50
19060;DHT22;9663;48.996;8.334;2023-01-13T17:08:12;11.20;66.10
19060;DHT22;9663;48.996;8.334;2023-01-13T17:10:43;11.30;66.20
19060;DHT22;9663;48.996;8.334;2023-01-13T17:13:12;11.60;66.10
19060;DHT22;9663;48.996;8.334;2023-01-13T17:15:38;11.50;66.30
19060;DHT22;9663;48.996;8.334;2023-01-13T17:18:06;11.40;65.90
19060;DHT22;9663;48.996;8.334;2023-01-13T17:20:32;11.20;65.60
19060;DHT22;9663;48.996;8.334;2023-01-13T17:22:58;11.60;65.80
19060;DHT22;9663;48.996;8.334;2023-01-13T17:25:23;11.60;65.60
19060;DHT22;9663;48.996;8.334;2023-01-13T17:27:49;12.90;66.40
19060;DHT22;9663;48.996;8.334;2023-01-13T17:30:15;11.60;65.70
19060;DHT22;9663;48.996;8.334;2023-01-13T17:32:41;11.30;65.30
19060;DHT22;9663;48.996;8.334;2023-01-13T17:35:07;11.20;65.20
19060;DHT22;9663;48.996;8.334;2023-01-13T17:37:33;11.50;65.30
19060;DHT22;9663;48.996;8.334;2023-01-13T17:39:59;13.10;66.60
19060;DHT22;9663;48.996;8.334;2023-01-13T17:42:25;13.00;66.60
19060;DHT22;9663;48.996;8.334;2023-01-13T17:44:54;12.30;66.30
19060;DHT22;9663;48.996;8.334;2023-01-13T17:47:20;11.10;66.30
19060;DHT22;9663;48.996;8.334;2023-01-13T17:49:45;11.30;65.60
19060;DHT22;9663;48.996;8.334;2023-01-13T17:52:11;11.30;65.60
19060;DHT22;9663;48.996;8.334;2023-01-13T17:54:37;11.20;65.80
19060;DHT22;9663;48.996;8.334;2023-01-13T17:57:04;10.90;65.50
19060;DHT22;9663;48.996;8.334;2023-01-13T17:59:30;12.00;66.30
19060;DHT22;9663;48.996;8.334;2023-01-13T18:01:56;11.40;65.90
19060;DHT22;9663;48.996;8.334;2023-01-13T18:04:24;11.30;66.00
19060;DHT22;9663;48.996;8.334;2023-01-13T18:06:55;12.00;66.40
19060;DHT22;9663;48.996;8.334;2023-01-13T18:09:23;11.40;65.60
19060;DHT22;9663;48.996;8.334;2023-01-13T18:11:50;11.40;66.00
19060;DHT22;9663;48.996;8.334;2023-01-13T18:14:16;10.80;65.30
19060;DHT22;9663;48.996;8.334;2023-01-13T18:16:42;11.20;65.80
19060;DHT22;9663;48.996;8.334;2023-01-13T18:19:08;11.40;65.90
19060;DHT22;9663;48.996;8.334;2023-01-13T18:21:53;12.20;66.00
19060;DHT22;9663;48.996;8.334;2023-01-13T18:24:37;11.20;65.10
19060;DHT22;9663;48.996;8.334;2023-01-13T18:27:30;11.30;65.60
19060;DHT22;9663;48.996;8.334;2023-01-13T18:29:59;11.10;65.60
19060;DHT22;9663;48.996;8.334;2023-01-13T18:32:28;11.20;65.80
19060;DHT22;9663;48.996;8.334;2023-01-13T18:35:00;11.10;65.90
19060;DHT22;9663;48.996;8.334;2023-01-13T18:37:29;11.50;66.10
19060;DHT22;9663;48.996;8.334;2023-01-13T18:39:55;11.10;66.00
19060;DHT22;9663;48.996;8.334;2023-01-13T18:42:21;11.60;66.20
19060;DHT22;9663;48.996;8.334;2023-01-13T18:45:05;11.60;65.70
19060;DHT22;9663;48.996;8.334;2023-01-13T18:47:31;11.10;65.50
19060;DHT22;9663;48.996;8.334;2023-01-13T18:49:58;12.30;66.70